sensor_id;sensor_type;location;lat;lon;timestamp;P1;durP1;ratioP1;P2;durP2;ratioP2
4049;SDS011;2039;50.894;6.888;2023-07-09T00:01:42;74.63;;;9.70;;
4049;SDS011;2039;50.894;6.888;2023-07-09T00:04:11;72.40;;;9.50;;
4049;SDS011;2039;50.894;6.888;2023-07-09T00:06:37;72.97;;;9.83;;
4049;SDS011;2039;50.894;6.888;2023-07-09T00:09:04;74.07;;;10.43;;
4049;SDS011;2039;50.894;6.888;2023-07-09T00:11:31;72.20;;;10.03;;
4049;SDS011;2039;50.894;6.888;2023-07-09T00:13:57;72.00;;;9.33;;
4049;SDS011;2039;50.894;6.888;2023-07-09T00:16:25;72.83;;;9.73;;
4049;SDS011;2039;50.894;6.888;2023-07-09T00:18:51;70.77;;;9.23;;
4049;SDS011;2039;50.894;6.888;2023-07-09T00:21:17;76.20;;;9.07;;
4049;SDS011;2039;50.894;6.888;2023-07-09T00:23:45;72.57;;;9.43;;
4049;SDS011;2039;50.894;6.888;2023-07-09T00:26:13;70.40;;;8.77;;
4049;SDS011;2039;50.894;6.888;2023-07-09T00:28:40;71.50;;;8.47;;
4049;SDS011;2039;50.894;6.888;2023-07-09T00:31:14;73.40;;;9.50;;
4049;SDS011;2039;50.894;6.888;2023-07-09T00:33:41;74.13;;;8.60;;
4049;SDS011;2039;50.894;6.888;2023-07-09T00:36:13;75.87;;;9.10;;
4049;SDS011;2039;50.894;6.888;2023-07-09T00:38:55;74.90;;;8.70;;
4049;SDS011;2039;50.894;6.888;2023-07-09T00:41:26;72.20;;;8.10;;
4049;SDS011;2039;50.894;6.888;2023-07-09T00:43:53;74.13;;;8.90;;
4049;SDS011;2039;50.894;6.888;2023-07-09T00:48:48;73.10;;;8.03;;
4049;SDS011;2039;50.894;6.888;2023-07-09T00:51:19;77.33;;;9.07;;
4049;SDS011;2039;50.894;6.888;2023-07-09T00:53:46;73.20;;;8.47;;
4049;SDS011;2039;50.894;6.888;2023-07-09T00:56:18;74.90;;;8.83;;
4049;SDS011;2039;50.894;6.888;2023-07-09T00:58:52;70.97;;;8.50;;
4049;SDS011;2039;50.894;6.888;2023-07-09T01:01:20;72.10;;;8.27;;
4049;SDS011;2039;50.894;6.888;2023-07-09T01:03:48;73.17;;;8.17;;
4049;SDS011;2039;50.894;6.888;2023-07-09T01:06:27;78.37;;;8.90;;
4049;SDS011;2039;50.894;6.888;2023-07-09T01:09:08;75.47;;;10.10;;
4049;SDS011;2039;50.894;6.888;2023-07-09T01:11:34;73.30;;;8.20;;
4049;SDS011;2039;50.894;6.888;2023-07-09T01:14:03;71.30;;;8.70;;
4049;SDS011;2039;50.894;6.888;2023-07-09T01:16:31;72.87;;;8.77;;
4049;SDS011;2039;50.894;6.888;2023-07-09T01:19:00;72.77;;;8.27;;
4049;SDS011;2039;50.894;6.888;2023-07-09T01:21:27;77.77;;;9.23;;
4049;SDS011;2039;50.894;6.888;2023-07-09T01:23:53;73.00;;;9.50;;
4049;SDS011;2039;50.894;6.888;2023-07-09T01:26:21;74.37;;;8.87;;
4049;SDS011;2039;50.894;6.888;2023-07-09T01:28:54;71.97;;;8.73;;
4049;SDS011;2039;50.894;6.888;2023-07-09T01:31:20;75.67;;;9.90;;
4049;SDS011;2039;50.894;6.888;2023-07-09T01:33:48;73.10;;;9.40;;
4049;SDS011;2039;50.894;6.888;2023-07-09T01:36:15;71.87;;;8.80;;
4049;SDS011;2039;50.894;6.888;2023-07-09T01:38:48;76.73;;;9.07;;
4049;SDS011;2039;50.894;6.888;2023-07-09T01:41:15;73.90;;;9.57;;
4049;SDS011;2039;50.894;6.888;2023-07-09T01:43:41;73.67;;;8.30;;
4049;SDS011;2039;50.894;6.888;2023-07-09T01:46:08;72.97;;;9.03;;
4049;SDS011;2039;50.894;6.888;2023-07-09T01:48:34;74.97;;;8.63;;
4049;SDS011;2039;50.894;6.888;2023-07-09T01:51:06;77.40;;;8.30;;
4049;SDS011;2039;50.894;6.888;2023-07-09T01:53:34;75.33;;;7.60;;
4049;SDS011;2039;50.894;6.888;2023-07-09T01:56:01;76.03;;;9.73;;
4049;SDS011;2039;50.894;6.888;2023-07-09T01:58:28;74.43;;;8.40;;
4049;SDS011;2039;50.894;6.888;2023-07-09T02:00:56;73.40;;;8.60;;
4049;SDS011;2039;50.894;6.888;2023-07-09T02:03:22;73.10;;;8.53;;
4049;SDS011;2039;50.894;6.888;2023-07-09T02:05:52;73.13;;;8.50;;
4049;SDS011;2039;50.894;6.888;2023-07-09T02:08:18;76.30;;;8.07;;
4049;SDS011;2039;50.894;6.888;2023-07-09T02:10:44;74.60;;;8.70;;
4049;SDS011;2039;50.894;6.888;2023-07-09T02:13:13;71.93;;;7.67;;
4049;SDS011;2039;50.894;6.888;2023-07-09T02:15:39;72.70;;;7.77;;
4049;SDS011;2039;50.894;6.888;2023-07-09T02:18:08;72.40;;;8.10;;
4049;SDS011;2039;50.894;6.888;2023-07-09T02:20:40;72.30;;;7.57;;
4049;SDS011;2039;50.894;6.888;2023-07-09T02:23:06;72.73;;;8.97;;
4049;SDS011;2039;50.894;6.888;2023-07-09T02:25:33;71.60;;;8.10;;
4049;SDS011;2039;50.894;6.888;2023-07-09T02:27:59;70.23;;;8.07;;
4049;SDS011;2039;50.894;6.888;2023-07-09T02:30:24;70.63;;;8.03;;
4049;SDS011;2039;50.894;6.888;2023-07-09T02:32:50;73.97;;;8.13;;
4049;SDS011;2039;50.894;6.888;2023-07-09T02:35:19;72.57;;;8.63;;
4049;SDS011;2039;50.894;6.888;2023-07-09T02:37:51;74.77;;;8.77;;
4049;SDS011;2039;50.894;6.888;2023-07-09T02:40:16;73.10;;;8.03;;
4049;SDS011;2039;50.894;6.888;2023-07-09T02:42:42;72.43;;;8.50;;
4049;SDS011;2039;50.894;6.888;2023-07-09T02:45:08;71.57;;;7.43;;
4049;SDS011;2039;50.894;6.888;2023-07-09T02:47:34;70.73;;;7.77;;
4049;SDS011;2039;50.894;6.888;2023-07-09T02:50:00;74.00;;;9.10;;
4049;SDS011;2039;50.894;6.888;2023-07-09T02:52:26;72.77;;;8.30;;
4049;SDS011;2039;50.894;6.888;2023-07-09T02:54:52;73.73;;;8.17;;
4049;SDS011;2039;50.894;6.888;2023-07-09T02:57:17;72.07;;;7.57;;
4049;SDS011;2039;50.894;6.888;2023-07-09T02:59:43;73.70;;;8.20;;
4049;SDS011;2039;50.894;6.888;2023-07-09T03:02:09;72.33;;;7.60;;
4049;SDS011;2039;50.894;6.888;2023-07-09T03:04:35;71.60;;;7.57;;
4049;SDS011;2039;50.894;6.888;2023-07-09T03:07:01;72.20;;;7.87;;
4049;SDS011;2039;50.894;6.888;2023-07-09T03:09:27;72.30;;;7.73;;
4049;SDS011;2039;50.894;6.888;2023-07-09T03:11:53;73.40;;;8.50;;
4049;SDS011;2039;50.894;6.888;2023-07-09T03:14:20;76.43;;;8.20;;
4049;SDS011;2039;50.894;6.888;2023-07-09T03:16:45;72.27;;;8.20;;
4049;SDS011;2039;50.894;6.888;2023-07-09T03:19:11;71.97;;;7.70;;
4049;SDS011;2039;50.894;6.888;2023-07-09T03:21:37;75.73;;;8.90;;
4049;SDS011;2039;50.894;6.888;2023-07-09T03:24:02;71.10;;;7.50;;
4049;SDS011;2039;50.894;6.888;2023-07-09T03:26:28;71.70;;;8.03;;
4049;SDS011;2039;50.894;6.888;2023-07-09T03:28:54;71.57;;;7.70;;
4049;SDS011;2039;50.894;6.888;2023-07-09T03:31:20;73.80;;;7.97;;
4049;SDS011;2039;50.894;6.888;2023-07-09T03:33:47;72.03;;;8.27;;
4049;SDS011;2039;50.894;6.888;2023-07-09T03:36:13;70.67;;;7.67;;
4049;SDS011;2039;50.894;6.888;2023-07-09T03:38:39;71.30;;;8.03;;
4049;SDS011;2039;50.894;6.888;2023-07-09T03:41:05;73.10;;;8.90;;
4049;SDS011;2039;50.894;6.888;2023-07-09T03:43:31;75.33;;;9.50;;
4049;SDS011;2039;50.894;6.888;2023-07-09T03:45:57;75.10;;;9.00;;
4049;SDS011;2039;50.894;6.888;2023-07-09T03:48:23;72.70;;;7.47;;
4049;SDS011;2039;50.894;6.888;2023-07-09T03:50:49;75.07;;;8.30;;
4049;SDS011;2039;50.894;6.888;2023-07-09T03:53:15;73.20;;;8.10;;
4049;SDS011;2039;50.894;6.888;2023-07-09T03:55:41;73.57;;;8.23;;
4049;SDS011;2039;50.894;6.888;2023-07-09T03:58:07;72.63;;;8.60;;
4049;SDS011;2039;50.894;6.888;2023-07-09T04:00:34;74.30;;;8.90;;
4049;SDS011;2039;50.894;6.888;2023-07-09T04:02:59;73.40;;;8.30;;
4049;SDS011;2039;50.894;6.888;2023-07-09T04:05:26;73.67;;;8.53;;
4049;SDS011;2039;50.894;6.888;2023-07-09T04:07:52;70.97;;;7.23;;
4049;SDS011;2039;50.894;6.888;2023-07-09T04:10:18;74.83;;;7.97;;
4049;SDS011;2039;50.894;6.888;2023-07-09T04:12:44;74.40;;;8.90;;
4049;SDS011;2039;50.894;6.888;2023-07-09T04:15:18;74.40;;;8.60;;
4049;SDS011;2039;50.894;6.888;2023-07-09T04:17:46;74.90;;;9.00;;
4049;SDS011;2039;50.894;6.888;2023-07-09T04:20:12;75.70;;;8.90;;
4049;SDS011;2039;50.894;6.888;2023-07-09T04:22:39;76.07;;;8.90;;
4049;SDS011;2039;50.894;6.888;2023-07-09T04:25:05;71.47;;;7.90;;
4049;SDS011;2039;50.894;6.888;2023-07-09T04:27:35;74.40;;;9.13;;
4049;SDS011;2039;50.894;6.888;2023-07-09T04:30:01;74.60;;;8.43;;
4049;SDS011;2039;50.894;6.888;2023-07-09T04:32:27;74.87;;;9.00;;
4049;SDS011;2039;50.894;6.888;2023-07-09T04:34:53;73.00;;;8.70;;
4049;SDS011;2039;50.894;6.888;2023-07-09T04:37:19;76.50;;;8.80;;
4049;SDS011;2039;50.894;6.888;2023-07-09T04:39:45;73.60;;;8.13;;
4049;SDS011;2039;50.894;6.888;2023-07-09T04:42:13;74.07;;;8.47;;
4049;SDS011;2039;50.894;6.888;2023-07-09T04:44:40;74.40;;;8.00;;
4049;SDS011;2039;50.894;6.888;2023-07-09T04:47:06;73.40;;;8.73;;
4049;SDS011;2039;50.894;6.888;2023-07-09T04:49:34;74.60;;;8.30;;
4049;SDS011;2039;50.894;6.888;2023-07-09T04:52:00;75.30;;;8.03;;
4049;SDS011;2039;50.894;6.888;2023-07-09T04:54:26;72.60;;;7.70;;
4049;SDS011;2039;50.894;6.888;2023-07-09T04:56:52;74.40;;;8.40;;
4049;SDS011;2039;50.894;6.888;2023-07-09T04:59:19;73.60;;;7.73;;
4049;SDS011;2039;50.894;6.888;2023-07-09T05:01:45;71.73;;;7.57;;
4049;SDS011;2039;50.894;6.888;2023-07-09T05:04:11;71.50;;;9.50;;
4049;SDS011;2039;50.894;6.888;2023-07-09T05:09:05;72.00;;;8.13;;
4049;SDS011;2039;50.894;6.888;2023-07-09T05:11:33;73.83;;;7.67;;
4049;SDS011;2039;50.894;6.888;2023-07-09T05:14:00;73.50;;;7.67;;
4049;SDS011;2039;50.894;6.888;2023-07-09T05:16:26;73.07;;;7.87;;
4049;SDS011;2039;50.894;6.888;2023-07-09T05:18:52;72.20;;;8.23;;
4049;SDS011;2039;50.894;6.888;2023-07-09T05:21:17;71.67;;;7.07;;
4049;SDS011;2039;50.894;6.888;2023-07-09T05:23:43;71.37;;;7.20;;
4049;SDS011;2039;50.894;6.888;2023-07-09T05:26:09;71.10;;;7.70;;
4049;SDS011;2039;50.894;6.888;2023-07-09T05:33:36;72.83;;;7.27;;
4049;SDS011;2039;50.894;6.888;2023-07-09T05:36:02;72.83;;;7.70;;
4049;SDS011;2039;50.894;6.888;2023-07-09T05:38:27;80.40;;;7.53;;
4049;SDS011;2039;50.894;6.888;2023-07-09T05:41:03;77.30;;;7.90;;
4049;SDS011;2039;50.894;6.888;2023-07-09T05:43:29;74.00;;;7.73;;
4049;SDS011;2039;50.894;6.888;2023-07-09T05:45:56;73.53;;;6.93;;
4049;SDS011;2039;50.894;6.888;2023-07-09T05:48:22;69.83;;;7.83;;
4049;SDS011;2039;50.894;6.888;2023-07-09T05:50:48;70.63;;;6.97;;
4049;SDS011;2039;50.894;6.888;2023-07-09T05:53:17;71.40;;;7.90;;
4049;SDS011;2039;50.894;6.888;2023-07-09T05:55:43;70.63;;;6.67;;
4049;SDS011;2039;50.894;6.888;2023-07-09T05:58:08;72.90;;;6.67;;
4049;SDS011;2039;50.894;6.888;2023-07-09T06:00:34;70.37;;;6.87;;
4049;SDS011;2039;50.894;6.888;2023-07-09T06:03:02;71.27;;;7.13;;
4049;SDS011;2039;50.894;6.888;2023-07-09T06:05:32;70.63;;;6.17;;
4049;SDS011;2039;50.894;6.888;2023-07-09T06:07:58;70.27;;;6.77;;
4049;SDS011;2039;50.894;6.888;2023-07-09T06:10:24;71.83;;;6.50;;
4049;SDS011;2039;50.894;6.888;2023-07-09T06:12:50;72.70;;;7.17;;
4049;SDS011;2039;50.894;6.888;2023-07-09T06:15:16;70.17;;;6.77;;
4049;SDS011;2039;50.894;6.888;2023-07-09T06:17:41;72.37;;;6.57;;
4049;SDS011;2039;50.894;6.888;2023-07-09T06:20:08;72.90;;;6.70;;
4049;SDS011;2039;50.894;6.888;2023-07-09T06:22:34;70.83;;;7.00;;
4049;SDS011;2039;50.894;6.888;2023-07-09T06:24:59;69.80;;;6.43;;
4049;SDS011;2039;50.894;6.888;2023-07-09T06:27:25;75.90;;;7.30;;
4049;SDS011;2039;50.894;6.888;2023-07-09T06:29:51;69.30;;;6.10;;
4049;SDS011;2039;50.894;6.888;2023-07-09T06:32:17;70.97;;;6.10;;
4049;SDS011;2039;50.894;6.888;2023-07-09T06:34:43;70.47;;;6.97;;
4049;SDS011;2039;50.894;6.888;2023-07-09T06:37:09;70.50;;;6.00;;
4049;SDS011;2039;50.894;6.888;2023-07-09T06:39:35;70.40;;;7.37;;
4049;SDS011;2039;50.894;6.888;2023-07-09T06:42:00;73.00;;;7.70;;
4049;SDS011;2039;50.894;6.888;2023-07-09T06:44:26;68.97;;;6.13;;
4049;SDS011;2039;50.894;6.888;2023-07-09T06:46:51;70.90;;;7.50;;
4049;SDS011;2039;50.894;6.888;2023-07-09T06:49:17;73.20;;;8.30;;
4049;SDS011;2039;50.894;6.888;2023-07-09T06:51:43;71.07;;;7.17;;
4049;SDS011;2039;50.894;6.888;2023-07-09T06:54:08;69.57;;;6.30;;
4049;SDS011;2039;50.894;6.888;2023-07-09T06:56:37;72.20;;;7.00;;
4049;SDS011;2039;50.894;6.888;2023-07-09T06:59:03;70.27;;;6.60;;
4049;SDS011;2039;50.894;6.888;2023-07-09T07:01:29;71.37;;;6.80;;
4049;SDS011;2039;50.894;6.888;2023-07-09T07:03:55;71.40;;;6.77;;
4049;SDS011;2039;50.894;6.888;2023-07-09T07:06:20;72.50;;;7.33;;
4049;SDS011;2039;50.894;6.888;2023-07-09T07:08:46;70.70;;;6.77;;
4049;SDS011;2039;50.894;6.888;2023-07-09T07:11:12;72.50;;;6.93;;
4049;SDS011;2039;50.894;6.888;2023-07-09T07:13:38;70.03;;;6.40;;
4049;SDS011;2039;50.894;6.888;2023-07-09T07:16:06;72.83;;;6.57;;
4049;SDS011;2039;50.894;6.888;2023-07-09T07:18:34;69.67;;;6.27;;
4049;SDS011;2039;50.894;6.888;2023-07-09T07:21:00;70.67;;;6.63;;
4049;SDS011;2039;50.894;6.888;2023-07-09T07:23:26;72.43;;;7.07;;
4049;SDS011;2039;50.894;6.888;2023-07-09T07:25:52;74.57;;;6.60;;
4049;SDS011;2039;50.894;6.888;2023-07-09T07:28:19;73.60;;;6.50;;
4049;SDS011;2039;50.894;6.888;2023-07-09T07:30:57;73.37;;;6.37;;
4049;SDS011;2039;50.894;6.888;2023-07-09T07:33:26;71.47;;;5.97;;
4049;SDS011;2039;50.894;6.888;2023-07-09T07:35:52;72.57;;;7.00;;
4049;SDS011;2039;50.894;6.888;2023-07-09T07:38:18;69.10;;;6.13;;
4049;SDS011;2039;50.894;6.888;2023-07-09T07:40:44;68.90;;;6.00;;
4049;SDS011;2039;50.894;6.888;2023-07-09T07:43:10;73.97;;;6.80;;
4049;SDS011;2039;50.894;6.888;2023-07-09T07:45:35;70.30;;;6.60;;
4049;SDS011;2039;50.894;6.888;2023-07-09T07:48:05;73.00;;;6.70;;
4049;SDS011;2039;50.894;6.888;2023-07-09T07:50:31;70.07;;;6.77;;
4049;SDS011;2039;50.894;6.888;2023-07-09T07:52:56;69.60;;;6.33;;
4049;SDS011;2039;50.894;6.888;2023-07-09T07:55:22;72.50;;;7.10;;
4049;SDS011;2039;50.894;6.888;2023-07-09T07:57:48;73.40;;;8.07;;
4049;SDS011;2039;50.894;6.888;2023-07-09T08:00:14;69.97;;;6.30;;
4049;SDS011;2039;50.894;6.888;2023-07-09T08:02:40;75.10;;;6.47;;
4049;SDS011;2039;50.894;6.888;2023-07-09T08:05:06;71.87;;;7.20;;
4049;SDS011;2039;50.894;6.888;2023-07-09T08:07:32;70.20;;;6.13;;
4049;SDS011;2039;50.894;6.888;2023-07-09T08:09:58;70.50;;;6.73;;
4049;SDS011;2039;50.894;6.888;2023-07-09T08:12:24;68.67;;;6.10;;
4049;SDS011;2039;50.894;6.888;2023-07-09T08:14:49;72.93;;;6.27;;
4049;SDS011;2039;50.894;6.888;2023-07-09T08:17:15;73.90;;;6.77;;
4049;SDS011;2039;50.894;6.888;2023-07-09T08:19:45;73.07;;;6.33;;
4049;SDS011;2039;50.894;6.888;2023-07-09T08:22:15;73.50;;;7.00;;
4049;SDS011;2039;50.894;6.888;2023-07-09T08:24:41;72.00;;;7.50;;
4049;SDS011;2039;50.894;6.888;2023-07-09T08:27:07;72.20;;;7.00;;
4049;SDS011;2039;50.894;6.888;2023-07-09T08:29:34;69.07;;;6.17;;
4049;SDS011;2039;50.894;6.888;2023-07-09T08:31:59;69.90;;;6.57;;
4049;SDS011;2039;50.894;6.888;2023-07-09T08:34:25;71.37;;;6.00;;
4049;SDS011;2039;50.894;6.888;2023-07-09T08:36:51;72.10;;;7.13;;
4049;SDS011;2039;50.894;6.888;2023-07-09T08:39:16;70.97;;;7.40;;
4049;SDS011;2039;50.894;6.888;2023-07-09T08:41:47;70.77;;;7.53;;
4049;SDS011;2039;50.894;6.888;2023-07-09T08:52:01;73.87;;;6.80;;
4049;SDS011;2039;50.894;6.888;2023-07-09T08:54:32;70.47;;;7.10;;
4049;SDS011;2039;50.894;6.888;2023-07-09T08:57:07;70.90;;;7.07;;
4049;SDS011;2039;50.894;6.888;2023-07-09T08:59:41;72.40;;;6.93;;
4049;SDS011;2039;50.894;6.888;2023-07-09T09:02:13;78.07;;;8.17;;
4049;SDS011;2039;50.894;6.888;2023-07-09T09:05:02;71.80;;;8.27;;
4049;SDS011;2039;50.894;6.888;2023-07-09T09:07:43;71.07;;;8.67;;
4049;SDS011;2039;50.894;6.888;2023-07-09T09:10:16;75.27;;;7.90;;
4049;SDS011;2039;50.894;6.888;2023-07-09T09:15:31;73.67;;;9.17;;
4049;SDS011;2039;50.894;6.888;2023-07-09T09:18:01;72.20;;;9.27;;
4049;SDS011;2039;50.894;6.888;2023-07-09T09:20:47;78.43;;;9.53;;
4049;SDS011;2039;50.894;6.888;2023-07-09T09:23:21;71.50;;;10.13;;
4049;SDS011;2039;50.894;6.888;2023-07-09T09:25:52;76.00;;;10.30;;
4049;SDS011;2039;50.894;6.888;2023-07-09T09:28:20;72.10;;;10.50;;
4049;SDS011;2039;50.894;6.888;2023-07-09T09:30:47;74.77;;;12.80;;
4049;SDS011;2039;50.894;6.888;2023-07-09T09:33:13;73.70;;;10.60;;
4049;SDS011;2039;50.894;6.888;2023-07-09T09:35:43;71.70;;;7.40;;
4049;SDS011;2039;50.894;6.888;2023-07-09T09:38:11;72.53;;;8.87;;
4049;SDS011;2039;50.894;6.888;2023-07-09T09:40:45;72.43;;;8.07;;
4049;SDS011;2039;50.894;6.888;2023-07-09T09:43:19;71.70;;;8.10;;
4049;SDS011;2039;50.894;6.888;2023-07-09T09:45:49;73.90;;;8.07;;
4049;SDS011;2039;50.894;6.888;2023-07-09T09:48:20;72.10;;;7.80;;
4049;SDS011;2039;50.894;6.888;2023-07-09T09:50:53;72.90;;;7.00;;
4049;SDS011;2039;50.894;6.888;2023-07-09T09:53:23;71.20;;;6.87;;
4049;SDS011;2039;50.894;6.888;2023-07-09T09:55:51;72.50;;;7.00;;
4049;SDS011;2039;50.894;6.888;2023-07-09T09:58:20;75.00;;;7.83;;
4049;SDS011;2039;50.894;6.888;2023-07-09T10:00:50;71.00;;;7.67;;
4049;SDS011;2039;50.894;6.888;2023-07-09T10:03:18;69.90;;;5.90;;
4049;SDS011;2039;50.894;6.888;2023-07-09T10:05:50;74.00;;;8.23;;
4049;SDS011;2039;50.894;6.888;2023-07-09T10:08:32;70.43;;;7.50;;
4049;SDS011;2039;50.894;6.888;2023-07-09T10:14:00;73.97;;;6.10;;
4049;SDS011;2039;50.894;6.888;2023-07-09T10:16:33;71.10;;;6.57;;
4049;SDS011;2039;50.894;6.888;2023-07-09T10:24:24;72.27;;;6.77;;
4049;SDS011;2039;50.894;6.888;2023-07-09T10:27:11;70.33;;;5.70;;
4049;SDS011;2039;50.894;6.888;2023-07-09T10:38:01;72.23;;;5.93;;
4049;SDS011;2039;50.894;6.888;2023-07-09T10:40:38;69.60;;;5.10;;
4049;SDS011;2039;50.894;6.888;2023-07-09T10:43:06;73.00;;;7.50;;
4049;SDS011;2039;50.894;6.888;2023-07-09T10:45:41;71.60;;;8.27;;
4049;SDS011;2039;50.894;6.888;2023-07-09T10:48:20;73.77;;;9.37;;
4049;SDS011;2039;50.894;6.888;2023-07-09T10:50:56;74.27;;;9.70;;
4049;SDS011;2039;50.894;6.888;2023-07-09T10:53:30;72.30;;;10.07;;
4049;SDS011;2039;50.894;6.888;2023-07-09T10:56:14;73.90;;;10.80;;
4049;SDS011;2039;50.894;6.888;2023-07-09T10:58:52;73.40;;;11.00;;
4049;SDS011;2039;50.894;6.888;2023-07-09T11:01:39;70.30;;;7.10;;
4049;SDS011;2039;50.894;6.888;2023-07-09T11:07:06;69.73;;;6.93;;
4049;SDS011;2039;50.894;6.888;2023-07-09T11:09:36;70.67;;;5.50;;
4049;SDS011;2039;50.894;6.888;2023-07-09T11:12:10;71.30;;;5.50;;
4049;SDS011;2039;50.894;6.888;2023-07-09T11:14:50;69.77;;;5.67;;
4049;SDS011;2039;50.894;6.888;2023-07-09T11:17:20;72.60;;;5.70;;
4049;SDS011;2039;50.894;6.888;2023-07-09T11:19:52;70.70;;;6.10;;
4049;SDS011;2039;50.894;6.888;2023-07-09T11:22:21;69.17;;;5.37;;
4049;SDS011;2039;50.894;6.888;2023-07-09T11:24:52;70.97;;;5.23;;
4049;SDS011;2039;50.894;6.888;2023-07-09T11:27:30;69.83;;;4.83;;
4049;SDS011;2039;50.894;6.888;2023-07-09T11:29:58;71.53;;;4.97;;
4049;SDS011;2039;50.894;6.888;2023-07-09T11:32:26;70.07;;;4.50;;
4049;SDS011;2039;50.894;6.888;2023-07-09T11:34:53;68.27;;;3.77;;
4049;SDS011;2039;50.894;6.888;2023-07-09T11:37:20;69.50;;;3.83;;
4049;SDS011;2039;50.894;6.888;2023-07-09T11:39:51;69.67;;;4.23;;
4049;SDS011;2039;50.894;6.888;2023-07-09T11:47:29;75.10;;;3.60;;
4049;SDS011;2039;50.894;6.888;2023-07-09T11:50:02;71.30;;;4.30;;
4049;SDS011;2039;50.894;6.888;2023-07-09T11:52:40;69.80;;;3.37;;
4049;SDS011;2039;50.894;6.888;2023-07-09T11:55:28;69.50;;;3.60;;
4049;SDS011;2039;50.894;6.888;2023-07-09T11:58:05;72.07;;;4.63;;
4049;SDS011;2039;50.894;6.888;2023-07-09T12:03:18;70.67;;;3.83;;
4049;SDS011;2039;50.894;6.888;2023-07-09T12:05:50;77.40;;;4.03;;
4049;SDS011;2039;50.894;6.888;2023-07-09T12:08:17;69.40;;;3.60;;
4049;SDS011;2039;50.894;6.888;2023-07-09T12:10:46;71.63;;;4.10;;
4049;SDS011;2039;50.894;6.888;2023-07-09T12:13:11;68.87;;;3.80;;
4049;SDS011;2039;50.894;6.888;2023-07-09T12:15:38;71.60;;;4.30;;
4049;SDS011;2039;50.894;6.888;2023-07-09T12:18:12;73.37;;;4.40;;
4049;SDS011;2039;50.894;6.888;2023-07-09T12:20:39;69.97;;;4.13;;
4049;SDS011;2039;50.894;6.888;2023-07-09T12:23:11;73.43;;;4.40;;
4049;SDS011;2039;50.894;6.888;2023-07-09T12:25:48;70.73;;;4.33;;
4049;SDS011;2039;50.894;6.888;2023-07-09T12:28:15;68.97;;;3.40;;
4049;SDS011;2039;50.894;6.888;2023-07-09T12:30:49;71.30;;;3.83;;
4049;SDS011;2039;50.894;6.888;2023-07-09T12:33:20;74.47;;;3.83;;
4049;SDS011;2039;50.894;6.888;2023-07-09T12:35:49;73.13;;;4.10;;
4049;SDS011;2039;50.894;6.888;2023-07-09T12:38:22;70.27;;;3.37;;
4049;SDS011;2039;50.894;6.888;2023-07-09T12:40:51;69.17;;;3.43;;
4049;SDS011;2039;50.894;6.888;2023-07-09T12:43:19;75.47;;;4.37;;
4049;SDS011;2039;50.894;6.888;2023-07-09T12:45:51;70.90;;;4.27;;
4049;SDS011;2039;50.894;6.888;2023-07-09T12:48:19;73.00;;;5.23;;
4049;SDS011;2039;50.894;6.888;2023-07-09T12:50:49;70.23;;;5.00;;
4049;SDS011;2039;50.894;6.888;2023-07-09T12:53:16;70.90;;;3.97;;
4049;SDS011;2039;50.894;6.888;2023-07-09T12:55:46;70.30;;;4.03;;
4049;SDS011;2039;50.894;6.888;2023-07-09T12:58:21;68.97;;;3.80;;
4049;SDS011;2039;50.894;6.888;2023-07-09T13:00:49;68.83;;;4.00;;
4049;SDS011;2039;50.894;6.888;2023-07-09T13:03:18;70.23;;;3.70;;
4049;SDS011;2039;50.894;6.888;2023-07-09T13:06:34;68.80;;;3.77;;
4049;SDS011;2039;50.894;6.888;2023-07-09T13:08:56;68.13;;;3.67;;
4049;SDS011;2039;50.894;6.888;2023-07-09T13:11:24;68.17;;;3.20;;
4049;SDS011;2039;50.894;6.888;2023-07-09T13:13:57;70.80;;;4.07;;
4049;SDS011;2039;50.894;6.888;2023-07-09T13:16:25;74.60;;;4.10;;
4049;SDS011;2039;50.894;6.888;2023-07-09T13:18:51;69.20;;;3.90;;
4049;SDS011;2039;50.894;6.888;2023-07-09T13:21:17;70.90;;;3.53;;
4049;SDS011;2039;50.894;6.888;2023-07-09T13:23:44;71.00;;;3.40;;
4049;SDS011;2039;50.894;6.888;2023-07-09T13:26:11;68.87;;;3.43;;
4049;SDS011;2039;50.894;6.888;2023-07-09T13:28:37;69.20;;;3.63;;
4049;SDS011;2039;50.894;6.888;2023-07-09T13:31:08;74.20;;;4.00;;
4049;SDS011;2039;50.894;6.888;2023-07-09T13:33:38;68.20;;;3.33;;
4049;SDS011;2039;50.894;6.888;2023-07-09T13:36:04;70.43;;;4.23;;
4049;SDS011;2039;50.894;6.888;2023-07-09T13:38:31;69.13;;;3.50;;
4049;SDS011;2039;50.894;6.888;2023-07-09T13:40:59;67.60;;;3.00;;
4049;SDS011;2039;50.894;6.888;2023-07-09T13:43:34;70.50;;;4.20;;
4049;SDS011;2039;50.894;6.888;2023-07-09T13:46:03;71.27;;;3.90;;
4049;SDS011;2039;50.894;6.888;2023-07-09T13:48:32;70.30;;;3.47;;
4049;SDS011;2039;50.894;6.888;2023-07-09T13:50:59;79.28;;;15.68;;
4049;SDS011;2039;50.894;6.888;2023-07-09T13:53:27;71.40;;;4.43;;
4049;SDS011;2039;50.894;6.888;2023-07-09T13:55:57;73.50;;;3.90;;
4049;SDS011;2039;50.894;6.888;2023-07-09T13:58:24;70.07;;;3.60;;
4049;SDS011;2039;50.894;6.888;2023-07-09T14:00:54;71.63;;;4.57;;
4049;SDS011;2039;50.894;6.888;2023-07-09T14:03:25;72.67;;;3.73;;
4049;SDS011;2039;50.894;6.888;2023-07-09T14:05:53;71.70;;;3.63;;
4049;SDS011;2039;50.894;6.888;2023-07-09T14:08:20;70.77;;;4.00;;
4049;SDS011;2039;50.894;6.888;2023-07-09T14:10:47;79.00;;;4.40;;
4049;SDS011;2039;50.894;6.888;2023-07-09T14:13:17;70.47;;;5.23;;
4049;SDS011;2039;50.894;6.888;2023-07-09T14:15:45;69.80;;;6.17;;
4049;SDS011;2039;50.894;6.888;2023-07-09T14:18:15;72.37;;;7.57;;
4049;SDS011;2039;50.894;6.888;2023-07-09T14:20:43;71.93;;;8.37;;
4049;SDS011;2039;50.894;6.888;2023-07-09T14:23:12;71.50;;;9.10;;
4049;SDS011;2039;50.894;6.888;2023-07-09T14:25:39;71.83;;;10.70;;
4049;SDS011;2039;50.894;6.888;2023-07-09T14:28:09;73.60;;;13.97;;
4049;SDS011;2039;50.894;6.888;2023-07-09T14:30:37;76.07;;;12.47;;
4049;SDS011;2039;50.894;6.888;2023-07-09T14:33:04;76.30;;;12.87;;
4049;SDS011;2039;50.894;6.888;2023-07-09T14:35:33;79.30;;;16.00;;
4049;SDS011;2039;50.894;6.888;2023-07-09T14:38:01;77.53;;;13.13;;
4049;SDS011;2039;50.894;6.888;2023-07-09T14:40:31;72.93;;;7.60;;
4049;SDS011;2039;50.894;6.888;2023-07-09T14:42:56;74.27;;;5.70;;
4049;SDS011;2039;50.894;6.888;2023-07-09T14:45:25;72.27;;;8.73;;
4049;SDS011;2039;50.894;6.888;2023-07-09T14:47:53;75.37;;;17.63;;
4049;SDS011;2039;50.894;6.888;2023-07-09T14:50:20;75.97;;;14.00;;
4049;SDS011;2039;50.894;6.888;2023-07-09T14:52:48;78.40;;;10.40;;
4049;SDS011;2039;50.894;6.888;2023-07-09T14:55:15;68.87;;;5.70;;
4049;SDS011;2039;50.894;6.888;2023-07-09T14:57:42;70.97;;;6.27;;
4049;SDS011;2039;50.894;6.888;2023-07-09T15:00:16;71.20;;;6.07;;
4049;SDS011;2039;50.894;6.888;2023-07-09T15:02:43;71.93;;;6.43;;
4049;SDS011;2039;50.894;6.888;2023-07-09T15:05:31;72.00;;;6.63;;
4049;SDS011;2039;50.894;6.888;2023-07-09T15:07:56;72.60;;;6.23;;
4049;SDS011;2039;50.894;6.888;2023-07-09T15:10:25;70.47;;;7.07;;
4049;SDS011;2039;50.894;6.888;2023-07-09T15:15:36;75.23;;;7.20;;
4049;SDS011;2039;50.894;6.888;2023-07-09T15:18:24;70.27;;;7.20;;
4049;SDS011;2039;50.894;6.888;2023-07-09T15:21:06;76.00;;;9.43;;
4049;SDS011;2039;50.894;6.888;2023-07-09T15:23:50;71.07;;;9.53;;
4049;SDS011;2039;50.894;6.888;2023-07-09T15:26:18;76.27;;;9.90;;
4049;SDS011;2039;50.894;6.888;2023-07-09T15:29:22;71.60;;;10.80;;
4049;SDS011;2039;50.894;6.888;2023-07-09T15:31:56;73.53;;;11.37;;
4049;SDS011;2039;50.894;6.888;2023-07-09T15:34:23;73.73;;;11.40;;
4049;SDS011;2039;50.894;6.888;2023-07-09T15:36:50;76.80;;;11.40;;
4049;SDS011;2039;50.894;6.888;2023-07-09T15:39:17;72.37;;;10.70;;
4049;SDS011;2039;50.894;6.888;2023-07-09T15:41:44;75.80;;;11.83;;
4049;SDS011;2039;50.894;6.888;2023-07-09T15:44:13;74.90;;;11.43;;
4049;SDS011;2039;50.894;6.888;2023-07-09T15:46:42;73.00;;;11.70;;
4049;SDS011;2039;50.894;6.888;2023-07-09T15:49:14;75.60;;;10.50;;
4049;SDS011;2039;50.894;6.888;2023-07-09T15:51:40;71.07;;;10.57;;
4049;SDS011;2039;50.894;6.888;2023-07-09T15:54:15;70.50;;;11.20;;
4049;SDS011;2039;50.894;6.888;2023-07-09T15:56:46;71.57;;;10.70;;
4049;SDS011;2039;50.894;6.888;2023-07-09T16:01:51;75.47;;;12.77;;
4049;SDS011;2039;50.894;6.888;2023-07-09T16:04:17;77.07;;;13.57;;